Погода Ордубадна неделю

Нахичеванский район, Азербайджан

18 - 24 июля
  • 18июля
    Сегодня
    +25°
    +36°
    Ясно и безоблачно
    ВремяПогодаТемператураВлажностьДавлениеВетер, м/сВероятность осадков
    01:00Ясно и безоблачно+29°C47 %686 мм4.5 м/с2 %
    04:00Ясно и безоблачно+28°C48 %685 мм3.5 м/с2 %
    07:00Ясно и безоблачно+27°C38 %685 мм3.9 м/с1 %
    10:00Ясно и безоблачно+32°C26 %686 мм5.5 м/с2 %
    13:00Ясно и безоблачно+35°C23 %685 мм6.2 м/с2 %
    16:00Ясно и безоблачно+35°C24 %684 мм6.3 м/с1 %
    19:00Ясно и безоблачно+33°C36 %684 мм6.1 м/с2 %
    22:00Ясно и безоблачно+29°C47 %685 мм5.4 м/с2 %
  • 19июля
    Пятница
    +25°
    +36°
    Ясно и безоблачно
    ВремяПогодаТемператураВлажностьДавлениеВетер, м/сВероятность осадков
    01:00Ясно и безоблачно+28°C57 %684 мм4.3 м/с2 %
    04:00Ясно и безоблачно+27°C57 %684 мм3.5 м/с2 %
    07:00Ясно и безоблачно+26°C52 %683 мм3.8 м/с2 %
    10:00Ясно и безоблачно+32°C36 %684 мм5.3 м/с2 %
    13:00Ясно и безоблачно+35°C31 %683 мм5.9 м/с1 %
    16:00Ясно и безоблачно+35°C35 %682 мм6.2 м/с3 %
    19:00Ясно и безоблачно+32°C44 %682 мм5.9 м/с8 %
    22:00Ясно и безоблачно+30°C53 %683 мм5.0 м/с8 %
  • 20июля
    Суббота
    +25°
    +38°
    Ясно и безоблачно
    ВремяПогодаТемператураВлажностьДавлениеВетер, м/сВероятность осадков
    01:00Ясно и безоблачно+28°C56 %682 мм4.4 м/с12 %
    04:00Практически безоблачно+27°C59 %682 мм3.6 м/с10 %
    07:00Ясно и безоблачно+26°C56 %682 мм3.8 м/с5 %
    10:00Ясно и безоблачно+32°C38 %682 мм4.9 м/с6 %
    13:00Ясно и безоблачно+36°C29 %682 мм5.5 м/с6 %
    16:00Ясно и безоблачно+37°C27 %681 мм5.6 м/с16 %
    19:00Облачно с прояснениями+33°C34 %681 мм5.2 м/с28 %
    22:00Небольшая облачность+32°C46 %682 мм3.3 м/с35 %
  • 21июля
    Воскресенье
    +27°
    +37°
    Ясно и безоблачно
    ВремяПогодаТемператураВлажностьДавлениеВетер, м/сВероятность осадков
    01:00Практически безоблачно+30°C54 %682 мм2.9 м/с31 %
    04:00Ясно и безоблачно+27°C59 %682 мм1.7 м/с12 %
    07:00Ясно и безоблачно+27°C56 %683 мм2.3 м/с9 %
    10:00Ясно и безоблачно+31°C46 %684 мм3.3 м/с15 %
    13:00Ясно и безоблачно+36°C36 %684 мм4.4 м/с29 %
    16:00Небольшая облачность и лёгкий дождик+37°C35 %683 мм5.0 м/с53 %
    19:00Ясно и безоблачно+34°C43 %684 мм4.5 м/с22 %
    22:00Ясно и безоблачно+31°C53 %684 мм3.7 м/с7 %
  • 22июля
    Понедельник
    +28°
    +40°
    Ясно и безоблачно
    ВремяПогодаТемператураВлажностьДавлениеВетер, м/сВероятность осадков
    01:00Ясно и безоблачно+30°C57 %684 мм3.3 м/с4 %
    04:00Ясно и безоблачно+28°C61 %684 мм2.6 м/с2 %
    07:00Ясно и безоблачно+28°C58 %684 мм3.1 м/с2 %
    10:00Ясно и безоблачно+34°C45 %685 мм4.1 м/с3 %
    13:00Ясно и безоблачно+38°C34 %684 мм4.5 м/с28 %
    16:00Небольшая облачность, возможен дождь с грозой+39°C32 %684 мм5.0 м/с46 %
    19:00Практически безоблачно+36°C40 %684 мм4.4 м/с28 %
    22:00Ясно и безоблачно+33°C50 %684 мм2.6 м/с16 %
Мы используем cookies
Соглашаюсь